Wetterstation Vordersexau
Wetterdaten: Woche 20.11.23 - 26.11.23 (KW47)
Datum Zeit Temp. A. Feuchte A. Luftdruck Regen Wind Richtung Taupunkt Windchill Windben
20.11.2023 00:00 13,0 C 82 % 1012,6 hPa 0,0 l/m 9,7 km/h (2 Bft) S-SW 10,0 C 11,1 C 14,8 km/h (3 Bft)
20.11.2023 01:00 12,8 C 85 % 1012,6 hPa 0,0 l/m 6,1 km/h (2 Bft) SW 10,3 C 12,8 C 11,2 km/h (2 Bft)
20.11.2023 02:00 12,8 C 84 % 1012,6 hPa 0,0 l/m 13,3 km/h (3 Bft) W-SW 10,2 C 9,2 C 20,9 km/h (4 Bft)
20.11.2023 03:00 12,8 C 82 % 1012,4 hPa 0,0 l/m 19,4 km/h (3 Bft) W-SW 9,8 C 7,1 C 25,6 km/h (4 Bft)
20.11.2023 04:00 12,0 C 82 % 1012,2 hPa 0,0 l/m 14,8 km/h (3 Bft) W-SW 9,0 C 7,6 C 22,0 km/h (4 Bft)
20.11.2023 05:00 12,0 C 82 % 1012,0 hPa 0,0 l/m 8,6 km/h (2 Bft) W 9,0 C 10,6 C 13,3 km/h (3 Bft)
20.11.2023 06:00 11,6 C 82 % 1012,2 hPa 0,0 l/m 11,2 km/h (2 Bft) W-NW 8,6 C 8,7 C 14,8 km/h (3 Bft)
20.11.2023 07:00 11,1 C 84 % 1011,8 hPa 0,0 l/m 13,3 km/h (3 Bft) W-SW 8,5 C 7,2 C 20,9 km/h (4 Bft)
20.11.2023 08:00 11,0 C 81 % 1011,9 hPa 0,0 l/m 12,2 km/h (2 Bft) W-SW 7,9 C 7,6 C 18,4 km/h (3 Bft)
20.11.2023 09:00 10,9 C 82 % 1012,1 hPa 0,0 l/m 7,2 km/h (2 Bft) W-SW 7,9 C 10,3 C 9,7 km/h (2 Bft)
20.11.2023 10:00 11,1 C 81 % 1012,1 hPa 0,0 l/m 9,7 km/h (2 Bft) W-SW 8,0 C 9,0 C 13,3 km/h (3 Bft)
20.11.2023 11:00 11,4 C 78 % 1012,1 hPa 0,0 l/m 9,7 km/h (2 Bft) SW 7,7 C 9,3 C 17,3 km/h (3 Bft)
20.11.2023 12:00 12,3 C 74 % 1011,3 hPa 0,0 l/m 12,2 km/h (2 Bft) S-SW 7,8 C 9,1 C 14,8 km/h (3 Bft)
20.11.2023 13:00 12,7 C 73 % 1010,6 hPa 0,0 l/m 12,2 km/h (2 Bft) W 8,0 C 9,5 C 18,4 km/h (3 Bft)
20.11.2023 14:00 12,7 C 71 % 1009,4 hPa 0,0 l/m 18,4 km/h (3 Bft) W-SW 7,6 C 7,3 C 28,1 km/h (4 Bft)
20.11.2023 15:00 12,3 C 72 % 1008,8 hPa 0,0 l/m 13,3 km/h (3 Bft) W-SW 7,4 C 8,6 C 20,9 km/h (4 Bft)
20.11.2023 16:00 11,6 C 74 % 1008,6 hPa 0,0 l/m 8,6 km/h (2 Bft) W-SW 7,1 C 10,2 C 13,3 km/h (3 Bft)
20.11.2023 17:00 11,0 C 77 % 1008,2 hPa 0,0 l/m 6,1 km/h (2 Bft) W 7,1 C 11,0 C 9,7 km/h (2 Bft)
20.11.2023 18:00 10,9 C 77 % 1008,1 hPa 0,0 l/m 13,3 km/h (3 Bft) SW 7,0 C 6,9 C 18,4 km/h (3 Bft)
20.11.2023 19:00 9,9 C 85 % 1008,3 hPa 0,0 l/m 2,5 km/h (1 Bft) SW 7,5 C 9,9 C 3,6 km/h (1 Bft)
20.11.2023 20:00 10,4 C 81 % 1007,9 hPa 0,0 l/m 5,0 km/h (1 Bft) W-SW 7,3 C 10,4 C 7,2 km/h (2 Bft)
20.11.2023 21:00 10,5 C 79 % 1007,5 hPa 0,0 l/m 7,2 km/h (2 Bft) W 7,0 C 9,9 C 11,2 km/h (2 Bft)
20.11.2023 22:00 10,6 C 79 % 1007,2 hPa 0,0 l/m 15,8 km/h (3 Bft) W-SW 7,1 C 5,5 C 25,6 km/h (4 Bft)
20.11.2023 23:00 10,1 C 82 % 1007,0 hPa 0,0 l/m 8,6 km/h (2 Bft) S-SW 7,2 C 8,6 C 13,3 km/h (3 Bft)
21.11.2023 00:00 10,0 C 83 % 1007,4 hPa 0,3 l/m 6,1 km/h (2 Bft) S-SW 7,2 C 10,0 C 11,2 km/h (2 Bft)
21.11.2023 01:00 9,3 C 89 % 1007,1 hPa 0,3 l/m 6,1 km/h (2 Bft) W-SW 7,6 C 9,3 C 11,2 km/h (2 Bft)
21.11.2023 02:00 8,9 C 92 % 1006,7 hPa 0,9 l/m 3,6 km/h (1 Bft) W 7,7 C 8,9 C 6,1 km/h (2 Bft)
21.11.2023 03:00 8,9 C 90 % 1006,8 hPa 0,0 l/m 9,7 km/h (2 Bft) W-NW 7,4 C 6,6 C 17,3 km/h (3 Bft)
21.11.2023 04:00 8,8 C 89 % 1006,6 hPa 0,0 l/m 6,1 km/h (2 Bft) W 7,1 C 8,8 C 11,2 km/h (2 Bft)
21.11.2023 05:00 8,7 C 90 % 1006,6 hPa 0,0 l/m 5,0 km/h (1 Bft) SW 7,2 C 8,7 C 6,1 km/h (2 Bft)
21.11.2023 06:00 8,3 C 93 % 1006,9 hPa 0,0 l/m 5,0 km/h (1 Bft) W 7,2 C 8,3 C 9,7 km/h (2 Bft)
21.11.2023 07:00 7,8 C 97 % 1007,4 hPa 1,2 l/m 2,5 km/h (1 Bft) SW 7,4 C 7,8 C 3,6 km/h (1 Bft)
21.11.2023 08:00 7,5 C 98 % 1007,7 hPa 0,3 l/m 2,5 km/h (1 Bft) N 7,2 C 7,5 C 3,6 km/h (1 Bft)
21.11.2023 09:00 7,8 C 98 % 1008,2 hPa 0,0 l/m 0,0 km/h (0 Bft) N 7,5 C 7,8 C 0,0 km/h (0 Bft)
21.11.2023 10:00 8,2 C 98 % 1008,7 hPa 0,0 l/m 0,0 km/h (0 Bft) N 7,9 C 8,2 C 0,0 km/h (0 Bft)
21.11.2023 11:00 8,5 C 95 % 1009,1 hPa 0,3 l/m 0,0 km/h (0 Bft) N 7,7 C 8,5 C 0,0 km/h (0 Bft)
21.11.2023 12:00 8,6 C 95 % 1009,3 hPa 0,0 l/m 0,0 km/h (0 Bft) W 7,8 C 8,6 C 0,0 km/h (0 Bft)
21.11.2023 13:00 8,1 C 98 % 1009,3 hPa 0,3 l/m 3,6 km/h (1 Bft) N 7,8 C 8,1 C 3,6 km/h (1 Bft)
21.11.2023 14:00 8,4 C 99 % 1009,6 hPa 1,2 l/m 0,0 km/h (0 Bft) N 8,3 C 8,4 C 0,0 km/h (0 Bft)
21.11.2023 15:00 8,9 C 99 % 1009,5 hPa 0,9 l/m 0,0 km/h (0 Bft) N 8,8 C 8,9 C 2,5 km/h (1 Bft)
21.11.2023 16:00 9,0 C 99 % 1010,1 hPa 0,0 l/m 0,0 km/h (0 Bft) N 8,9 C 9,0 C 0,0 km/h (0 Bft)
21.11.2023 17:00 8,6 C 96 % 1010,8 hPa 0,0 l/m 0,0 km/h (0 Bft) N 8,0 C 8,6 C 2,5 km/h (1 Bft)
21.11.2023 18:00 8,3 C 97 % 1011,4 hPa 0,0 l/m 0,0 km/h (0 Bft) N 7,9 C 8,3 C 0,0 km/h (0 Bft)
21.11.2023 19:00 8,2 C 98 % 1012,1 hPa 0,0 l/m 0,0 km/h (0 Bft) N 7,9 C 8,2 C 2,5 km/h (1 Bft)
21.11.2023 20:00 8,1 C 98 % 1012,9 hPa 0,6 l/m 0,0 km/h (0 Bft) N 7,8 C 8,1 C 0,0 km/h (0 Bft)
21.11.2023 21:00 7,9 C 97 % 1013,5 hPa 1,5 l/m 0,0 km/h (0 Bft) N 7,5 C 7,9 C 2,5 km/h (1 Bft)
21.11.2023 22:00 7,8 C 98 % 1014,3 hPa 0,0 l/m 0,0 km/h (0 Bft) N 7,5 C 7,8 C 0,0 km/h (0 Bft)
21.11.2023 23:00 7,5 C 98 % 1014,6 hPa 0,0 l/m 0,0 km/h (0 Bft) N 7,2 C 7,5 C 0,0 km/h (0 Bft)
22.11.2023 00:00 7,6 C 99 % 1014,9 hPa 0,0 l/m 0,0 km/h (0 Bft) N 7,5 C 7,6 C 0,0 km/h (0 Bft)
22.11.2023 01:00 7,4 C 99 % 1015,2 hPa 0,0 l/m 0,0 km/h (0 Bft) N 7,3 C 7,4 C 0,0 km/h (0 Bft)
22.11.2023 02:00 7,2 C 99 % 1015,4 hPa 0,0 l/m 0,0 km/h (0 Bft) N 7,1 C 7,2 C 0,0 km/h (0 Bft)
22.11.2023 03:00 7,1 C 99 % 1015,4 hPa 0,0 l/m 0,0 km/h (0 Bft) N 7,0 C 7,1 C 0,0 km/h (0 Bft)
22.11.2023 04:00 7,1 C 99 % 1015,6 hPa 0,0 l/m 0,0 km/h (0 Bft) NO 7,0 C 7,1 C 0,0 km/h (0 Bft)
22.11.2023 05:00 6,3 C 99 % 1016,0 hPa 0,3 l/m 5,0 km/h (1 Bft) NW 6,2 C 6,3 C 9,7 km/h (2 Bft)
22.11.2023 06:00 5,2 C 99 % 1016,9 hPa 0,0 l/m 5,0 km/h (1 Bft) N 5,1 C 5,2 C 7,2 km/h (2 Bft)
22.11.2023 07:00 5,1 C 96 % 1017,8 hPa 0,0 l/m 0,0 km/h (0 Bft) O-NO 4,5 C 5,1 C 2,5 km/h (1 Bft)
22.11.2023 08:00 4,8 C 94 % 1018,4 hPa 0,0 l/m 1,1 km/h (1 Bft) N-NO 3,9 C 4,8 C 3,6 km/h (1 Bft)
22.11.2023 09:00 4,2 C 93 % 1019,7 hPa 0,0 l/m 2,5 km/h (1 Bft) O-NO 3,2 C 4,2 C 3,6 km/h (1 Bft)
22.11.2023 10:00 4,7 C 90 % 1020,2 hPa 0,0 l/m 5,0 km/h (1 Bft) NO 3,2 C 4,7 C 7,2 km/h (2 Bft)
22.11.2023 11:00 5,0 C 83 % 1020,5 hPa 0,0 l/m 2,5 km/h (1 Bft) N-NO 2,4 C 5,0 C 3,6 km/h (1 Bft)
22.11.2023 12:00 5,1 C 79 % 1020,6 hPa 0,0 l/m 1,1 km/h (1 Bft) N-NW 1,8 C 5,1 C 2,5 km/h (1 Bft)
22.11.2023 13:00 5,0 C 80 % 1021,5 hPa 0,0 l/m 3,6 km/h (1 Bft) N-NO 1,8 C 5,0 C 7,2 km/h (2 Bft)
22.11.2023 14:00 4,4 C 83 % 1022,1 hPa 0,0 l/m 1,1 km/h (1 Bft) N 1,8 C 4,4 C 3,6 km/h (1 Bft)
22.11.2023 15:00 3,5 C 87 % 1022,2 hPa 0,0 l/m 1,1 km/h (1 Bft) NW 1,5 C 3,5 C 3,6 km/h (1 Bft)
22.11.2023 16:00 3,4 C 87 % 1022,9 hPa 0,0 l/m 3,6 km/h (1 Bft) N 1,4 C 3,4 C 6,1 km/h (2 Bft)
22.11.2023 17:00 3,3 C 87 % 1022,8 hPa 0,0 l/m 1,1 km/h (1 Bft) N 1,3 C 3,3 C 3,6 km/h (1 Bft)
22.11.2023 18:00 3,0 C 88 % 1023,1 hPa 0,0 l/m 0,0 km/h (0 Bft) N 1,2 C 3,0 C 0,0 km/h (0 Bft)
22.11.2023 19:00 3,0 C 89 % 1024,2 hPa 0,0 l/m 0,0 km/h (0 Bft) N 1,4 C 3,0 C 2,5 km/h (1 Bft)
22.11.2023 20:00 3,0 C 89 % 1024,5 hPa 0,0 l/m 0,0 km/h (0 Bft) N-NO 1,4 C 3,0 C 2,5 km/h (1 Bft)
22.11.2023 21:00 2,7 C 92 % 1024,1 hPa 0,0 l/m 1,1 km/h (1 Bft) N 1,5 C 2,7 C 2,5 km/h (1 Bft)
22.11.2023 22:00 2,5 C 90 % 1024,3 hPa 0,0 l/m 0,0 km/h (0 Bft) W-NW 1,0 C 2,5 C 0,0 km/h (0 Bft)
22.11.2023 23:00 2,2 C 91 % 1024,3 hPa 0,0 l/m 2,5 km/h (1 Bft) N 0,9 C 2,2 C 3,6 km/h (1 Bft)
23.11.2023 00:00 1,7 C 92 % 1023,9 hPa 0,0 l/m 0,0 km/h (0 Bft) N 0,5 C 1,7 C 2,5 km/h (1 Bft)
23.11.2023 01:00 0,8 C 93 % 1024,3 hPa 0,0 l/m 0,0 km/h (0 Bft) N -0,2 C 0,8 C 2,5 km/h (1 Bft)
23.11.2023 02:00 0,2 C 95 % 1024,3 hPa 0,0 l/m 0,0 km/h (0 Bft) N -0,5 C 0,2 C 0,0 km/h (0 Bft)
23.11.2023 03:00 -0,2 C 96 % 1024,4 hPa 0,0 l/m 0,0 km/h (0 Bft) N -0,8 C -0,2 C 0,0 km/h (0 Bft)
23.11.2023 04:00 0,0 C 98 % 1024,1 hPa 0,0 l/m 0,0 km/h (0 Bft) N -0,3 C 0,0 C 2,5 km/h (1 Bft)
23.11.2023 05:00 -0,4 C 98 % 1024,0 hPa 0,0 l/m 0,0 km/h (0 Bft) N -0,7 C -0,4 C 2,5 km/h (1 Bft)
23.11.2023 06:00 -0,7 C 99 % 1023,7 hPa 0,0 l/m 0,0 km/h (0 Bft) N -0,8 C -0,7 C 0,0 km/h (0 Bft)
23.11.2023 07:00 -1,2 C 99 % 1024,0 hPa 0,0 l/m 0,0 km/h (0 Bft) N -1,3 C -1,2 C 0,0 km/h (0 Bft)
23.11.2023 08:00 -1,3 C 99 % 1024,5 hPa 0,0 l/m 0,0 km/h (0 Bft) N -1,4 C -1,3 C 0,0 km/h (0 Bft)
23.11.2023 09:00 -0,6 C 99 % 1024,7 hPa 0,0 l/m 0,0 km/h (0 Bft) N -0,7 C -0,6 C 2,5 km/h (1 Bft)
23.11.2023 10:00 2,0 C 94 % 1024,9 hPa 0,0 l/m 0,0 km/h (0 Bft) SO 1,1 C 2,0 C 2,5 km/h (1 Bft)
23.11.2023 11:00 3,5 C 88 % 1024,4 hPa 0,0 l/m 5,0 km/h (1 Bft) S-SO 1,7 C 3,5 C 6,1 km/h (2 Bft)
23.11.2023 12:00 5,5 C 79 % 1023,4 hPa 0,0 l/m 2,5 km/h (1 Bft) N 2,2 C 5,5 C 6,1 km/h (2 Bft)
23.11.2023 13:00 8,1 C 72 % 1022,8 hPa 0,0 l/m 0,0 km/h (0 Bft) W-SW 3,4 C 8,1 C 2,5 km/h (1 Bft)
23.11.2023 14:00 8,9 C 67 % 1021,9 hPa 0,0 l/m 1,1 km/h (1 Bft) SW 3,1 C 8,9 C 2,5 km/h (1 Bft)
23.11.2023 15:00 9,3 C 69 % 1020,5 hPa 0,0 l/m 1,1 km/h (1 Bft) W 3,9 C 9,3 C 2,5 km/h (1 Bft)
23.11.2023 16:00 8,7 C 72 % 1020,6 hPa 0,0 l/m 3,6 km/h (1 Bft) W 3,9 C 8,7 C 3,6 km/h (1 Bft)
23.11.2023 17:00 6,6 C 77 % 1020,0 hPa 0,0 l/m 2,5 km/h (1 Bft) W 2,9 C 6,6 C 3,6 km/h (1 Bft)
23.11.2023 18:00 4,5 C 88 % 1020,3 hPa 0,0 l/m 1,1 km/h (1 Bft) N 2,7 C 4,5 C 2,5 km/h (1 Bft)
23.11.2023 19:00 4,5 C 89 % 1019,6 hPa 0,0 l/m 0,0 km/h (0 Bft) N 2,8 C 4,5 C 0,0 km/h (0 Bft)
23.11.2023 20:00 2,8 C 95 % 1019,2 hPa 0,0 l/m 0,0 km/h (0 Bft) N 2,1 C 2,8 C 0,0 km/h (0 Bft)
23.11.2023 21:00 2,3 C 95 % 1018,3 hPa 0,0 l/m 0,0 km/h (0 Bft) O-NO 1,6 C 2,3 C 0,0 km/h (0 Bft)
23.11.2023 22:00 3,5 C 94 % 1018,0 hPa 0,0 l/m 2,5 km/h (1 Bft) O-NO 2,6 C 3,5 C 3,6 km/h (1 Bft)
23.11.2023 23:00 5,0 C 91 % 1017,6 hPa 0,0 l/m 1,1 km/h (1 Bft) S 3,7 C 5,0 C 2,5 km/h (1 Bft)
24.11.2023 00:00 6,1 C 91 % 1017,1 hPa 0,0 l/m 1,1 km/h (1 Bft) S 4,7 C 6,1 C 2,5 km/h (1 Bft)
24.11.2023 01:00 7,0 C 90 % 1015,8 hPa 0,0 l/m 5,0 km/h (1 Bft) W-SW 5,5 C 7,0 C 9,7 km/h (2 Bft)
24.11.2023 02:00 7,4 C 86 % 1014,5 hPa 0,0 l/m 5,0 km/h (1 Bft) W-SW 5,2 C 7,4 C 7,2 km/h (2 Bft)
24.11.2023 03:00 7,2 C 90 % 1013,9 hPa 0,0 l/m 13,3 km/h (3 Bft) W-SW 5,7 C 2,6 C 22,0 km/h (4 Bft)
24.11.2023 04:00 7,4 C 90 % 1013,1 hPa 0,0 l/m 14,8 km/h (3 Bft) W-NW 5,9 C 2,1 C 24,5 km/h (4 Bft)
24.11.2023 05:00 7,7 C 89 % 1012,7 hPa 0,0 l/m 9,7 km/h (2 Bft) W 6,0 C 5,2 C 14,8 km/h (3 Bft)
24.11.2023 06:00 7,9 C 89 % 1011,6 hPa 0,0 l/m 9,7 km/h (2 Bft) W-SW 6,2 C 5,5 C 13,3 km/h (3 Bft)
24.11.2023 07:00 7,3 C 94 % 1011,5 hPa 0,0 l/m 6,1 km/h (2 Bft) W 6,4 C 7,3 C 9,7 km/h (2 Bft)
24.11.2023 08:00 7,1 C 95 % 1010,8 hPa 0,0 l/m 9,7 km/h (2 Bft) W-SW 6,4 C 4,6 C 14,8 km/h (3 Bft)
24.11.2023 09:00 7,5 C 92 % 1010,2 hPa 0,0 l/m 13,3 km/h (3 Bft) SW 6,3 C 2,9 C 20,9 km/h (4 Bft)
24.11.2023 10:00 7,6 C 93 % 1009,6 hPa 0,0 l/m 12,2 km/h (2 Bft) W-SW 6,5 C 3,6 C 18,4 km/h (3 Bft)
24.11.2023 11:00 7,3 C 97 % 1009,3 hPa 3,3 l/m 5,0 km/h (1 Bft) W-NW 6,9 C 7,3 C 9,7 km/h (2 Bft)
24.11.2023 12:00 7,5 C 97 % 1008,3 hPa 0,6 l/m 3,6 km/h (1 Bft) NW 7,1 C 7,5 C 6,1 km/h (2 Bft)
24.11.2023 13:00 6,9 C 94 % 1007,2 hPa 0,3 l/m 5,0 km/h (1 Bft) NW 6,0 C 6,9 C 9,7 km/h (2 Bft)
24.11.2023 14:00 8,1 C 69 % 1006,7 hPa 0,0 l/m 11,2 km/h (2 Bft) W-NW 2,8 C 4,8 C 18,4 km/h (3 Bft)
24.11.2023 15:00 7,7 C 70 % 1006,5 hPa 0,0 l/m 6,1 km/h (2 Bft) W-NW 2,6 C 7,7 C 11,2 km/h (2 Bft)
24.11.2023 16:00 7,6 C 72 % 1005,5 hPa 0,0 l/m 3,6 km/h (1 Bft) W-NW 2,9 C 7,6 C 7,2 km/h (2 Bft)
24.11.2023 17:00 6,7 C 77 % 1005,7 hPa 0,0 l/m 6,1 km/h (2 Bft) W 3,0 C 6,7 C 11,2 km/h (2 Bft)
24.11.2023 18:00 6,1 C 80 % 1006,1 hPa 0,0 l/m 6,1 km/h (2 Bft) NW 2,9 C 6,1 C 7,2 km/h (2 Bft)
24.11.2023 19:00 4,7 C 92 % 1006,8 hPa 0,9 l/m 3,6 km/h (1 Bft) W-NW 3,5 C 4,7 C 9,7 km/h (2 Bft)
24.11.2023 20:00 3,6 C 96 % 1007,3 hPa 0,0 l/m 1,1 km/h (1 Bft) SW 3,0 C 3,6 C 2,5 km/h (1 Bft)
24.11.2023 21:00 4,1 C 96 % 1007,7 hPa 0,0 l/m 1,1 km/h (1 Bft) N 3,5 C 4,1 C 2,5 km/h (1 Bft)
24.11.2023 22:00 3,8 C 89 % 1007,8 hPa 0,0 l/m 0,0 km/h (0 Bft) W 2,2 C 3,8 C 2,5 km/h (1 Bft)
24.11.2023 23:00 3,6 C 88 % 1007,3 hPa 0,0 l/m 3,6 km/h (1 Bft) W 1,8 C 3,6 C 6,1 km/h (2 Bft)
25.11.2023 00:00 3,9 C 85 % 1007,1 hPa 0,0 l/m 3,6 km/h (1 Bft) W 1,6 C 3,9 C 6,1 km/h (2 Bft)
25.11.2023 01:00 4,0 C 84 % 1007,2 hPa 0,0 l/m 5,0 km/h (1 Bft) W 1,5 C 4,0 C 7,2 km/h (2 Bft)
25.11.2023 02:00 3,9 C 83 % 1007,3 hPa 0,0 l/m 5,0 km/h (1 Bft) W 1,3 C 3,9 C 7,2 km/h (2 Bft)
25.11.2023 03:00 3,8 C 83 % 1007,5 hPa 0,0 l/m 3,6 km/h (1 Bft) N 1,2 C 3,8 C 6,1 km/h (2 Bft)
25.11.2023 04:00 3,6 C 85 % 1007,8 hPa 0,0 l/m 0,0 km/h (0 Bft) N-NW 1,3 C 3,6 C 0,0 km/h (0 Bft)
25.11.2023 05:00 3,7 C 81 % 1008,6 hPa 0,0 l/m 2,5 km/h (1 Bft) N 0,7 C 3,7 C 3,6 km/h (1 Bft)
25.11.2023 06:00 3,5 C 82 % 1009,0 hPa 0,0 l/m 2,5 km/h (1 Bft) NO 0,7 C 3,5 C 6,1 km/h (2 Bft)
25.11.2023 07:00 3,3 C 82 % 1009,5 hPa 0,0 l/m 1,1 km/h (1 Bft) N 0,5 C 3,3 C 6,1 km/h (2 Bft)
25.11.2023 08:00 2,9 C 85 % 1009,6 hPa 0,0 l/m 0,0 km/h (0 Bft) N 0,6 C 2,9 C 2,5 km/h (1 Bft)
25.11.2023 09:00 2,0 C 88 % 1009,9 hPa 0,0 l/m 0,0 km/h (0 Bft) W 0,2 C 2,0 C 0,0 km/h (0 Bft)
25.11.2023 10:00 3,4 C 86 % 1010,2 hPa 0,0 l/m 2,5 km/h (1 Bft) W-SW 1,3 C 3,4 C 3,6 km/h (1 Bft)
25.11.2023 11:00 3,9 C 84 % 1010,6 hPa 0,0 l/m 5,0 km/h (1 Bft) W 1,4 C 3,9 C 7,2 km/h (2 Bft)
25.11.2023 12:00 4,7 C 80 % 1010,5 hPa 0,0 l/m 5,0 km/h (1 Bft) N 1,6 C 4,7 C 9,7 km/h (2 Bft)
25.11.2023 13:00 6,7 C 66 % 1009,8 hPa 0,0 l/m 3,6 km/h (1 Bft) N-NW 0,8 C 6,7 C 7,2 km/h (2 Bft)
25.11.2023 14:00 5,5 C 71 % 1009,6 hPa 0,0 l/m 5,0 km/h (1 Bft) W-NW 0,7 C 5,5 C 9,7 km/h (2 Bft)
25.11.2023 15:00 5,3 C 71 % 1009,2 hPa 0,0 l/m 2,5 km/h (1 Bft) W 0,5 C 5,3 C 3,6 km/h (1 Bft)
25.11.2023 16:00 4,7 C 76 % 1009,4 hPa 0,0 l/m 2,5 km/h (1 Bft) N 0,8 C 4,7 C 3,6 km/h (1 Bft)
25.11.2023 17:00 2,6 C 88 % 1009,4 hPa 1,2 l/m 0,0 km/h (0 Bft) N 0,8 C 2,6 C 0,0 km/h (0 Bft)
25.11.2023 18:00 1,9 C 95 % 1009,8 hPa 1,8 l/m 0,0 km/h (0 Bft) W 1,2 C 1,9 C 2,5 km/h (1 Bft)
25.11.2023 19:00 3,2 C 95 % 1010,4 hPa 0,9 l/m 6,1 km/h (2 Bft) SW 2,5 C 3,2 C 9,7 km/h (2 Bft)
25.11.2023 20:00 3,1 C 95 % 1010,6 hPa 0,9 l/m 7,2 km/h (2 Bft) W 2,4 C 2,3 C 11,2 km/h (2 Bft)
25.11.2023 21:00 3,2 C 93 % 1010,8 hPa 0,0 l/m 5,0 km/h (1 Bft) W-SW 2,2 C 3,2 C 11,2 km/h (2 Bft)
25.11.2023 22:00 3,3 C 93 % 1010,9 hPa 0,0 l/m 6,1 km/h (2 Bft) W-SW 2,3 C 3,3 C 9,7 km/h (2 Bft)
25.11.2023 23:00 3,1 C 95 % 1010,8 hPa 0,6 l/m 5,0 km/h (1 Bft) W-SW 2,4 C 3,1 C 7,2 km/h (2 Bft)
26.11.2023 00:00 3,2 C 96 % 1011,0 hPa 0,6 l/m 1,1 km/h (1 Bft) W-SW 2,6 C 3,2 C 2,5 km/h (1 Bft)
26.11.2023 01:00 3,3 C 96 % 1011,3 hPa 0,6 l/m 1,1 km/h (1 Bft) W-SW 2,7 C 3,3 C 3,6 km/h (1 Bft)
26.11.2023 02:00 3,4 C 95 % 1011,7 hPa 0,6 l/m 2,5 km/h (1 Bft) W 2,7 C 3,4 C 3,6 km/h (1 Bft)
26.11.2023 03:00 3,4 C 96 % 1012,0 hPa 0,0 l/m 3,6 km/h (1 Bft) W-SW 2,8 C 3,4 C 7,2 km/h (2 Bft)
26.11.2023 04:00 3,2 C 96 % 1012,4 hPa 0,3 l/m 3,6 km/h (1 Bft) W-SW 2,6 C 3,2 C 3,6 km/h (1 Bft)
26.11.2023 05:00 3,2 C 96 % 1012,5 hPa 0,0 l/m 1,1 km/h (1 Bft) W-SW 2,6 C 3,2 C 3,6 km/h (1 Bft)
26.11.2023 06:00 3,2 C 96 % 1012,8 hPa 0,0 l/m 1,1 km/h (1 Bft) W-SW 2,6 C 3,2 C 2,5 km/h (1 Bft)
26.11.2023 07:00 3,1 C 95 % 1013,1 hPa 0,0 l/m 1,1 km/h (1 Bft) W 2,4 C 3,1 C 2,5 km/h (1 Bft)
26.11.2023 08:00 3,2 C 93 % 1013,7 hPa 0,0 l/m 5,0 km/h (1 Bft) W 2,2 C 3,2 C 7,2 km/h (2 Bft)
26.11.2023 09:00 3,2 C 92 % 1013,8 hPa 0,0 l/m 5,0 km/h (1 Bft) W-SW 2,0 C 3,2 C 7,2 km/h (2 Bft)
26.11.2023 10:00 3,2 C 92 % 1014,3 hPa 0,0 l/m 3,6 km/h (1 Bft) W-SW 2,0 C 3,2 C 6,1 km/h (2 Bft)
26.11.2023 11:00 3,5 C 91 % 1014,5 hPa 0,3 l/m 5,0 km/h (1 Bft) W 2,2 C 3,5 C 7,2 km/h (2 Bft)
26.11.2023 12:00 4,0 C 90 % 1014,3 hPa 0,0 l/m 6,1 km/h (2 Bft) W-SW 2,5 C 4,0 C 7,2 km/h (2 Bft)
26.11.2023 13:00 4,4 C 88 % 1013,9 hPa 0,0 l/m 3,6 km/h (1 Bft) W 2,6 C 4,4 C 6,1 km/h (2 Bft)
26.11.2023 14:00 5,1 C 84 % 1013,6 hPa 0,0 l/m 5,0 km/h (1 Bft) W-SW 2,6 C 5,1 C 7,2 km/h (2 Bft)
26.11.2023 15:00 5,2 C 84 % 1013,0 hPa 0,0 l/m 5,0 km/h (1 Bft) W 2,7 C 5,2 C 7,2 km/h (2 Bft)
26.11.2023 16:00 5,1 C 84 % 1013,1 hPa 0,0 l/m 3,6 km/h (1 Bft) W 2,6 C 5,1 C 6,1 km/h (2 Bft)
26.11.2023 17:00 4,5 C 87 % 1013,2 hPa 0,0 l/m 1,1 km/h (1 Bft) N 2,5 C 4,5 C 2,5 km/h (1 Bft)
26.11.2023 18:00 3,9 C 90 % 1013,2 hPa 0,0 l/m 0,0 km/h (0 Bft) N 2,4 C 3,9 C 0,0 km/h (0 Bft)
26.11.2023 19:00 2,9 C 95 % 1012,8 hPa 0,0 l/m 0,0 km/h (0 Bft) N 2,2 C 2,9 C 0,0 km/h (0 Bft)
26.11.2023 20:00 1,8 C 97 % 1012,8 hPa 0,0 l/m 0,0 km/h (0 Bft) N 1,4 C 1,8 C 0,0 km/h (0 Bft)
26.11.2023 21:00 1,1 C 98 % 1012,5 hPa 0,0 l/m 0,0 km/h (0 Bft) N 0,8 C 1,1 C 0,0 km/h (0 Bft)
26.11.2023 22:00 0,7 C 98 % 1011,9 hPa 0,0 l/m 0,0 km/h (0 Bft) S 0,4 C 0,7 C 0,0 km/h (0 Bft)
26.11.2023 23:00 0,6 C 99 % 1011,7 hPa 0,0 l/m 1,1 km/h (1 Bft) N 0,5 C 0,6 C 2,5 km/h (1 Bft)
Min-Datum _ 23.11.23 25.11.23 24.11.23 - 21.11.23 - 23.11.23 23.11.23 21.11.23
_ Min-Zeit 08:13 13:13 16:13 - 09:13 - 08:13 08:13 09:13
Minimum _ -1,3 C 66 % 1005,5 hPa - 0,0 km/h (0 Bft) - -1,4 C -1,3 C 0,0 km/h (0 Bft)
Max-Datum _ 20.11.23 21.11.23 23.11.23 24.11.23 20.11.23 - 20.11.23 20.11.23 20.11.23
_ Max-Zeit 00:13 14:13 10:13 11:13 03:13 - 01:13 01:13 14:13
Maximum _ 13,0 C 99 % 1024,9 hPa 3,3 l/m 19,4 km/h
W-SW (3 Bft)
- 10,3 C 12,8 C 28,1 km/h
W-SW (4 Bft)
Durchschnitt _ 5,9 C 89 % 1013,5 hPa #21,0 l/m 3,9 km/h (1 Bft) W-SW 4,1 C 5,4 C 6,6 km/h (2 Bft)
www.sexauwetter.de